sensor_id;sensor_type;location;lat;lon;timestamp;pressure;altitude;pressure_sealevel;temperature;humidity
70338;BME280;57757;53.198;19.646;2023-04-27T00:00:19;100178.68;;;2.41;51.92
70338;BME280;57757;53.198;19.646;2023-04-27T00:03:07;100180.74;;;2.41;51.96
70338;BME280;57757;53.198;19.646;2023-04-27T00:05:36;100177.63;;;2.39;52.07
70338;BME280;57757;53.198;19.646;2023-04-27T00:08:07;100179.52;;;2.38;52.13
70338;BME280;57757;53.198;19.646;2023-04-27T00:10:35;100179.02;;;2.39;52.29
70338;BME280;57757;53.198;19.646;2023-04-27T00:13:03;100180.73;;;2.41;52.32
70338;BME280;57757;53.198;19.646;2023-04-27T00:15:31;100177.99;;;2.40;52.33
70338;BME280;57757;53.198;19.646;2023-04-27T00:17:58;100177.99;;;2.40;52.39
70338;BME280;57757;53.198;19.646;2023-04-27T00:20:27;100181.09;;;2.42;52.40
70338;BME280;57757;53.198;19.646;2023-04-27T00:22:55;100184.20;;;2.44;52.45
70338;BME280;57757;53.198;19.646;2023-04-27T00:25:23;100178.90;;;2.47;52.49
70338;BME280;57757;53.198;19.646;2023-04-27T00:27:51;100182.71;;;2.50;52.44
70338;BME280;57757;53.198;19.646;2023-04-27T00:30:18;100187.21;;;2.54;52.63
70338;BME280;57757;53.198;19.646;2023-04-27T00:32:46;100188.34;;;2.63;52.73
70338;BME280;57757;53.198;19.646;2023-04-27T00:35:14;100188.55;;;2.71;52.70
70338;BME280;57757;53.198;19.646;2023-04-27T00:37:42;100190.85;;;2.79;52.71
70338;BME280;57757;53.198;19.646;2023-04-27T00:40:09;100191.09;;;2.87;52.74
70338;BME280;57757;53.198;19.646;2023-04-27T00:42:38;100188.73;;;2.93;52.78
70338;BME280;57757;53.198;19.646;2023-04-27T00:45:06;100191.89;;;3.01;52.92
70338;BME280;57757;53.198;19.646;2023-04-27T00:47:35;100193.32;;;3.08;52.93
70338;BME280;57757;53.198;19.646;2023-04-27T00:50:03;100196.77;;;3.12;52.85
70338;BME280;57757;53.198;19.646;2023-04-27T00:52:38;100196.45;;;3.16;52.84
70338;BME280;57757;53.198;19.646;2023-04-27T00:55:06;100194.76;;;3.20;52.92
70338;BME280;57757;53.198;19.646;2023-04-27T00:57:34;100196.33;;;3.23;52.97
70338;BME280;57757;53.198;19.646;2023-04-27T01:00:02;100197.73;;;3.24;52.96
70338;BME280;57757;53.198;19.646;2023-04-27T01:02:34;100195.66;;;3.26;53.00
70338;BME280;57757;53.198;19.646;2023-04-27T01:05:03;100194.30;;;3.28;53.03
70338;BME280;57757;53.198;19.646;2023-04-27T01:07:32;100192.75;;;3.28;52.99
70338;BME280;57757;53.198;19.646;2023-04-27T01:09:59;100194.98;;;3.25;53.08
70338;BME280;57757;53.198;19.646;2023-04-27T01:12:27;100193.75;;;3.23;53.00
70338;BME280;57757;53.198;19.646;2023-04-27T01:14:56;100199.59;;;3.23;53.22
70338;BME280;57757;53.198;19.646;2023-04-27T01:17:23;100200.11;;;3.23;53.13
70338;BME280;57757;53.198;19.646;2023-04-27T01:19:51;100205.45;;;3.24;53.21
70338;BME280;57757;53.198;19.646;2023-04-27T01:22:22;100205.09;;;3.22;53.21
70338;BME280;57757;53.198;19.646;2023-04-27T01:24:50;100202.29;;;3.15;53.13
70338;BME280;57757;53.198;19.646;2023-04-27T01:27:17;100200.88;;;3.10;53.17
70338;BME280;57757;53.198;19.646;2023-04-27T01:29:45;100207.55;;;3.06;53.32
70338;BME280;57757;53.198;19.646;2023-04-27T01:32:13;100205.30;;;3.01;53.36
70338;BME280;57757;53.198;19.646;2023-04-27T01:34:40;100204.57;;;2.95;53.38
70338;BME280;57757;53.198;19.646;2023-04-27T01:37:08;100205.02;;;2.91;53.51
70338;BME280;57757;53.198;19.646;2023-04-27T01:39:35;100207.92;;;2.89;53.62
70338;BME280;57757;53.198;19.646;2023-04-27T01:42:03;100210.67;;;2.88;53.66
70338;BME280;57757;53.198;19.646;2023-04-27T01:44:31;100211.38;;;2.89;53.76
70338;BME280;57757;53.198;19.646;2023-04-27T01:46:58;100207.10;;;2.92;53.81
70338;BME280;57757;53.198;19.646;2023-04-27T01:49:26;100211.23;;;2.93;53.81
70338;BME280;57757;53.198;19.646;2023-04-27T01:51:54;100210.91;;;2.95;53.96
70338;BME280;57757;53.198;19.646;2023-04-27T01:54:21;100212.64;;;2.95;53.95
70338;BME280;57757;53.198;19.646;2023-04-27T01:56:49;100210.58;;;2.95;53.97
70338;BME280;57757;53.198;19.646;2023-04-27T01:59:18;100211.77;;;2.94;53.92
70338;BME280;57757;53.198;19.646;2023-04-27T02:01:45;100213.98;;;2.93;53.98
70338;BME280;57757;53.198;19.646;2023-04-27T02:04:13;100215.69;;;2.92;54.03
70338;BME280;57757;53.198;19.646;2023-04-27T02:06:41;100214.84;;;2.91;54.11
70338;BME280;57757;53.198;19.646;2023-04-27T02:09:09;100213.77;;;2.88;54.12
70338;BME280;57757;53.198;19.646;2023-04-27T02:11:37;100210.86;;;2.89;54.17
70338;BME280;57757;53.198;19.646;2023-04-27T02:14:04;100210.89;;;2.92;54.26
70338;BME280;57757;53.198;19.646;2023-04-27T02:16:32;100210.58;;;2.95;54.32
70338;BME280;57757;53.198;19.646;2023-04-27T02:18:59;100209.73;;;2.98;54.29
70338;BME280;57757;53.198;19.646;2023-04-27T02:21:28;100210.59;;;2.99;54.26
70338;BME280;57757;53.198;19.646;2023-04-27T02:23:55;100211.11;;;2.98;54.26
70338;BME280;57757;53.198;19.646;2023-04-27T02:26:23;100212.11;;;2.95;54.25
70338;BME280;57757;53.198;19.646;2023-04-27T02:28:55;100212.09;;;2.93;54.31
70338;BME280;57757;53.198;19.646;2023-04-27T02:31:24;100211.73;;;2.89;54.32
70338;BME280;57757;53.198;19.646;2023-04-27T02:33:51;100214.80;;;2.86;54.46
70338;BME280;57757;53.198;19.646;2023-04-27T02:36:19;100210.30;;;2.83;54.39
70338;BME280;57757;53.198;19.646;2023-04-27T02:38:47;100207.50;;;2.77;54.47
70338;BME280;57757;53.198;19.646;2023-04-27T02:41:14;100209.17;;;2.72;54.55
70338;BME280;57757;53.198;19.646;2023-04-27T02:43:42;100207.09;;;2.69;54.54
70338;BME280;57757;53.198;19.646;2023-04-27T02:46:09;100208.95;;;2.66;54.58
70338;BME280;57757;53.198;19.646;2023-04-27T02:48:37;100210.80;;;2.61;54.59
70338;BME280;57757;53.198;19.646;2023-04-27T02:51:04;100211.45;;;2.58;54.73
70338;BME280;57757;53.198;19.646;2023-04-27T02:53:33;100207.67;;;2.57;54.82
70338;BME280;57757;53.198;19.646;2023-04-27T02:56:00;100211.80;;;2.57;54.81
70338;BME280;57757;53.198;19.646;2023-04-27T02:58:28;100214.86;;;2.54;54.78
70338;BME280;57757;53.198;19.646;2023-04-27T03:00:56;100216.71;;;2.51;54.78
70338;BME280;57757;53.198;19.646;2023-04-27T03:03:23;100216.33;;;2.47;54.79
70338;BME280;57757;53.198;19.646;2023-04-27T03:05:51;100224.55;;;2.46;54.93
70338;BME280;57757;53.198;19.646;2023-04-27T03:08:19;100223.34;;;2.45;54.99
70338;BME280;57757;53.198;19.646;2023-04-27T03:10:46;100225.21;;;2.44;54.92
70338;BME280;57757;53.198;19.646;2023-04-27T03:13:14;100224.67;;;2.42;55.02
70338;BME280;57757;53.198;19.646;2023-04-27T03:15:42;100225.54;;;2.42;55.14
70338;BME280;57757;53.198;19.646;2023-04-27T03:18:10;100229.87;;;2.44;55.20
70338;BME280;57757;53.198;19.646;2023-04-27T03:20:37;100231.75;;;2.44;55.15
70338;BME280;57757;53.198;19.646;2023-04-27T03:23:05;100237.72;;;2.41;55.17
70338;BME280;57757;53.198;19.646;2023-04-27T03:25:33;100236.50;;;2.37;55.08
70338;BME280;57757;53.198;19.646;2023-04-27T03:28:01;100238.69;;;2.35;55.18
70338;BME280;57757;53.198;19.646;2023-04-27T03:30:28;100241.42;;;2.33;55.18
70338;BME280;57757;53.198;19.646;2023-04-27T03:32:56;100239.01;;;2.32;55.35
70338;BME280;57757;53.198;19.646;2023-04-27T03:35:24;100242.80;;;2.33;55.49
70338;BME280;57757;53.198;19.646;2023-04-27T03:37:51;100247.61;;;2.34;55.50
70338;BME280;57757;53.198;19.646;2023-04-27T03:40:19;100246.73;;;2.33;55.51
70338;BME280;57757;53.198;19.646;2023-04-27T03:42:47;100250.82;;;2.30;55.45
70338;BME280;57757;53.198;19.646;2023-04-27T03:45:14;100253.17;;;2.25;55.40
70338;BME280;57757;53.198;19.646;2023-04-27T03:47:43;100255.33;;;2.19;55.44
70338;BME280;57757;53.198;19.646;2023-04-27T03:50:11;100254.59;;;2.14;55.49
70338;BME280;57757;53.198;19.646;2023-04-27T03:52:38;100258.49;;;2.11;55.50
70338;BME280;57757;53.198;19.646;2023-04-27T03:55:06;100259.18;;;2.11;55.60
70338;BME280;57757;53.198;19.646;2023-04-27T03:57:34;100260.07;;;2.13;55.70
70338;BME280;57757;53.198;19.646;2023-04-27T04:00:02;100259.74;;;2.15;55.79
70338;BME280;57757;53.198;19.646;2023-04-27T04:02:34;100260.66;;;2.19;55.81
70338;BME280;57757;53.198;19.646;2023-04-27T04:05:03;100264.98;;;2.23;55.95
70338;BME280;57757;53.198;19.646;2023-04-27T04:07:31;100264.36;;;2.28;55.99
70338;BME280;57757;53.198;19.646;2023-04-27T04:09:58;100263.75;;;2.35;56.05
70338;BME280;57757;53.198;19.646;2023-04-27T04:12:26;100266.41;;;2.43;56.11
70338;BME280;57757;53.198;19.646;2023-04-27T04:14:53;100270.45;;;2.52;56.27
70338;BME280;57757;53.198;19.646;2023-04-27T04:17:21;100270.20;;;2.61;56.31
70338;BME280;57757;53.198;19.646;2023-04-27T04:19:48;100266.86;;;2.70;56.31
70338;BME280;57757;53.198;19.646;2023-04-27T04:22:16;100268.48;;;2.79;56.33
70338;BME280;57757;53.198;19.646;2023-04-27T04:24:43;100270.61;;;2.87;56.30
70338;BME280;57757;53.198;19.646;2023-04-27T04:27:11;100273.77;;;2.93;56.35
70338;BME280;57757;53.198;19.646;2023-04-27T04:29:39;100272.09;;;2.98;56.28
70338;BME280;57757;53.198;19.646;2023-04-27T04:32:07;100279.15;;;3.00;56.30
70338;BME280;57757;53.198;19.646;2023-04-27T04:34:35;100275.55;;;3.01;56.39
70338;BME280;57757;53.198;19.646;2023-04-27T04:37:03;100278.32;;;3.03;56.38
70338;BME280;57757;53.198;19.646;2023-04-27T04:39:32;100276.95;;;3.05;56.40
70338;BME280;57757;53.198;19.646;2023-04-27T04:41:59;100278.89;;;3.09;56.55
70338;BME280;57757;53.198;19.646;2023-04-27T04:44:27;100283.40;;;3.16;56.63
70338;BME280;57757;53.198;19.646;2023-04-27T04:46:55;100286.38;;;3.22;56.65
70338;BME280;57757;53.198;19.646;2023-04-27T04:49:22;100287.63;;;3.28;56.74
70338;BME280;57757;53.198;19.646;2023-04-27T04:51:50;100283.20;;;3.34;56.78
70338;BME280;57757;53.198;19.646;2023-04-27T04:54:18;100284.80;;;3.43;56.83
70338;BME280;57757;53.198;19.646;2023-04-27T04:56:45;100285.38;;;3.51;56.84
70338;BME280;57757;53.198;19.646;2023-04-27T04:59:13;100286.47;;;3.60;56.88
70338;BME280;57757;53.198;19.646;2023-04-27T05:01:41;100291.69;;;3.69;56.84
70338;BME280;57757;53.198;19.646;2023-04-27T05:04:08;100299.29;;;3.77;56.83
70338;BME280;57757;53.198;19.646;2023-04-27T05:06:37;100295.75;;;3.86;56.79
70338;BME280;57757;53.198;19.646;2023-04-27T05:09:05;100297.50;;;3.94;56.88
70338;BME280;57757;53.198;19.646;2023-04-27T05:11:32;100299.08;;;3.99;56.86
70338;BME280;57757;53.198;19.646;2023-04-27T05:14:00;100300.33;;;4.07;57.00
70338;BME280;57757;53.198;19.646;2023-04-27T05:16:27;100305.70;;;4.15;56.98
70338;BME280;57757;53.198;19.646;2023-04-27T05:18:55;100304.16;;;4.20;56.87
70338;BME280;57757;53.198;19.646;2023-04-27T05:21:23;100309.52;;;4.27;56.86
70338;BME280;57757;53.198;19.646;2023-04-27T05:23:50;100307.33;;;4.37;56.98
70338;BME280;57757;53.198;19.646;2023-04-27T05:26:18;100304.96;;;4.49;57.08
70338;BME280;57757;53.198;19.646;2023-04-27T05:28:46;100308.27;;;4.60;56.98
70338;BME280;57757;53.198;19.646;2023-04-27T05:31:13;100310.52;;;4.69;56.97
70338;BME280;57757;53.198;19.646;2023-04-27T05:33:41;100315.20;;;4.76;56.85
70338;BME280;57757;53.198;19.646;2023-04-27T05:36:11;100313.48;;;4.78;56.77
70338;BME280;57757;53.198;19.646;2023-04-27T05:38:43;100318.48;;;4.81;56.83
70338;BME280;57757;53.198;19.646;2023-04-27T05:41:11;100316.91;;;4.83;56.79
70338;BME280;57757;53.198;19.646;2023-04-27T05:43:39;100318.48;;;4.87;56.84
70338;BME280;57757;53.198;19.646;2023-04-27T05:46:07;100322.13;;;4.96;57.00
70338;BME280;57757;53.198;19.646;2023-04-27T05:48:35;100316.61;;;5.05;56.88
70338;BME280;57757;53.198;19.646;2023-04-27T05:51:03;100317.99;;;5.14;57.04
70338;BME280;57757;53.198;19.646;2023-04-27T05:53:32;100322.48;;;5.22;56.89
70338;BME280;57757;53.198;19.646;2023-04-27T05:56:02;100324.73;;;5.29;56.94
70338;BME280;57757;53.198;19.646;2023-04-27T05:58:33;100324.20;;;5.36;57.03
70338;BME280;57757;53.198;19.646;2023-04-27T06:01:00;100324.73;;;5.44;57.02
70338;BME280;57757;53.198;19.646;2023-04-27T06:03:30;100325.07;;;5.53;57.00
70338;BME280;57757;53.198;19.646;2023-04-27T06:05:59;100328.17;;;5.62;57.09
70338;BME280;57757;53.198;19.646;2023-04-27T06:08:28;100334.70;;;5.73;57.05
70338;BME280;57757;53.198;19.646;2023-04-27T06:10:57;100328.48;;;5.83;57.16
70338;BME280;57757;53.198;19.646;2023-04-27T06:13:25;100332.28;;;5.94;57.11
70338;BME280;57757;53.198;19.646;2023-04-27T06:15:54;100334.15;;;6.07;57.14
70338;BME280;57757;53.198;19.646;2023-04-27T06:18:22;100339.29;;;6.20;57.23
70338;BME280;57757;53.198;19.646;2023-04-27T06:20:52;100339.59;;;6.35;57.09
70338;BME280;57757;53.198;19.646;2023-04-27T06:23:19;100337.99;;;6.44;56.87
70338;BME280;57757;53.198;19.646;2023-04-27T06:25:47;100332.95;;;6.52;56.85
70338;BME280;57757;53.198;19.646;2023-04-27T06:28:15;100331.51;;;6.64;56.92
70338;BME280;57757;53.198;19.646;2023-04-27T06:30:42;100335.59;;;6.75;56.81
70338;BME280;57757;53.198;19.646;2023-04-27T06:33:10;100333.31;;;6.82;56.68
70338;BME280;57757;53.198;19.646;2023-04-27T06:35:38;100331.02;;;6.88;56.67
70338;BME280;57757;53.198;19.646;2023-04-27T06:38:06;100331.65;;;6.97;56.73
70338;BME280;57757;53.198;19.646;2023-04-27T06:40:35;100329.66;;;7.09;56.71
70338;BME280;57757;53.198;19.646;2023-04-27T06:43:03;100328.89;;;7.21;56.68
70338;BME280;57757;53.198;19.646;2023-04-27T06:45:33;100330.69;;;7.34;56.72
70338;BME280;57757;53.198;19.646;2023-04-27T06:48:03;100328.20;;;7.41;56.53
70338;BME280;57757;53.198;19.646;2023-04-27T06:50:49;100328.92;;;7.39;56.35
70338;BME280;57757;53.198;19.646;2023-04-27T06:53:27;100327.56;;;7.36;56.42
70338;BME280;57757;53.198;19.646;2023-04-27T06:55:57;100325.45;;;7.41;56.45
70338;BME280;57757;53.198;19.646;2023-04-27T06:58:25;100325.39;;;7.48;56.38
70338;BME280;57757;53.198;19.646;2023-04-27T07:00:53;100321.52;;;7.54;56.47
70338;BME280;57757;53.198;19.646;2023-04-27T07:03:21;100327.48;;;7.66;56.50
70338;BME280;57757;53.198;19.646;2023-04-27T07:05:49;100330.96;;;7.81;56.33
70338;BME280;57757;53.198;19.646;2023-04-27T07:08:18;100330.31;;;7.94;56.27
70338;BME280;57757;53.198;19.646;2023-04-27T07:10:45;100328.61;;;8.07;56.31
70338;BME280;57757;53.198;19.646;2023-04-27T07:13:16;100328.79;;;8.23;56.24
70338;BME280;57757;53.198;19.646;2023-04-27T07:15:44;100329.11;;;8.40;56.19
70338;BME280;57757;53.198;19.646;2023-04-27T07:18:11;100332.11;;;8.51;55.81
70338;BME280;57757;53.198;19.646;2023-04-27T07:20:40;100328.91;;;8.57;55.74
70338;BME280;57757;53.198;19.646;2023-04-27T07:23:07;100333.03;;;8.60;55.72
70338;BME280;57757;53.198;19.646;2023-04-27T07:25:35;100331.37;;;8.68;55.64
70338;BME280;57757;53.198;19.646;2023-04-27T07:28:03;100330.34;;;8.80;55.55
70338;BME280;57757;53.198;19.646;2023-04-27T07:30:31;100331.55;;;8.91;55.66
70338;BME280;57757;53.198;19.646;2023-04-27T07:33:01;100328.86;;;9.09;55.60
70338;BME280;57757;53.198;19.646;2023-04-27T07:35:28;100333.66;;;9.25;55.40
70338;BME280;57757;53.198;19.646;2023-04-27T07:37:56;100331.21;;;9.27;55.12
70338;BME280;57757;53.198;19.646;2023-04-27T07:40:24;100335.91;;;9.25;54.97
70338;BME280;57757;53.198;19.646;2023-04-27T07:42:52;100338.21;;;9.23;54.77
70338;BME280;57757;53.198;19.646;2023-04-27T07:45:21;100337.96;;;9.16;54.74
70338;BME280;57757;53.198;19.646;2023-04-27T07:47:53;100340.48;;;9.10;54.62
70338;BME280;57757;53.198;19.646;2023-04-27T07:50:22;100337.84;;;9.00;54.34
70338;BME280;57757;53.198;19.646;2023-04-27T07:52:52;100340.34;;;8.96;54.48
70338;BME280;57757;53.198;19.646;2023-04-27T07:55:22;100340.48;;;8.98;54.51
70338;BME280;57757;53.198;19.646;2023-04-27T07:57:55;100332.36;;;9.07;54.65
70338;BME280;57757;53.198;19.646;2023-04-27T08:00:23;100333.86;;;9.11;54.41
70338;BME280;57757;53.198;19.646;2023-04-27T08:02:54;100334.16;;;9.13;54.19
70338;BME280;57757;53.198;19.646;2023-04-27T08:05:23;100334.20;;;9.11;54.12
70338;BME280;57757;53.198;19.646;2023-04-27T08:07:51;100331.52;;;9.07;54.04
70338;BME280;57757;53.198;19.646;2023-04-27T08:10:21;100331.23;;;9.01;54.01
70338;BME280;57757;53.198;19.646;2023-04-27T08:12:49;100336.52;;;8.96;54.01
70338;BME280;57757;53.198;19.646;2023-04-27T08:15:17;100338.08;;;8.96;54.02
70338;BME280;57757;53.198;19.646;2023-04-27T08:17:44;100343.79;;;8.97;53.90
70338;BME280;57757;53.198;19.646;2023-04-27T08:20:13;100343.44;;;8.97;53.78
70338;BME280;57757;53.198;19.646;2023-04-27T08:22:41;100341.59;;;9.17;54.15
70338;BME280;57757;53.198;19.646;2023-04-27T08:25:09;100338.30;;;9.38;54.11
70338;BME280;57757;53.198;19.646;2023-04-27T08:27:38;100342.49;;;9.48;53.74
70338;BME280;57757;53.198;19.646;2023-04-27T08:30:07;100338.81;;;9.59;53.75
70338;BME280;57757;53.198;19.646;2023-04-27T08:32:34;100338.80;;;9.90;53.94
70338;BME280;57757;53.198;19.646;2023-04-27T08:35:02;100334.91;;;10.22;53.73
70338;BME280;57757;53.198;19.646;2023-04-27T08:37:31;100331.14;;;10.37;53.26
70338;BME280;57757;53.198;19.646;2023-04-27T08:39:58;100329.95;;;10.36;52.89
70338;BME280;57757;53.198;19.646;2023-04-27T08:42:26;100336.15;;;10.30;52.73
70338;BME280;57757;53.198;19.646;2023-04-27T08:44:58;100336.50;;;10.22;52.49
70338;BME280;57757;53.198;19.646;2023-04-27T08:47:26;100334.80;;;10.19;52.61
70338;BME280;57757;53.198;19.646;2023-04-27T08:50:10;100334.88;;;10.33;52.53
70338;BME280;57757;53.198;19.646;2023-04-27T08:52:37;100339.92;;;10.32;52.12
70338;BME280;57757;53.198;19.646;2023-04-27T08:55:06;100338.80;;;10.19;51.84
70338;BME280;57757;53.198;19.646;2023-04-27T08:57:34;100340.98;;;10.03;51.79
70338;BME280;57757;53.198;19.646;2023-04-27T09:00:04;100338.28;;;9.89;51.71
70338;BME280;57757;53.198;19.646;2023-04-27T09:02:46;100337.11;;;9.78;51.79
70338;BME280;57757;53.198;19.646;2023-04-27T09:05:16;100349.41;;;9.70;51.67
70338;BME280;57757;53.198;19.646;2023-04-27T09:08:04;100345.73;;;9.61;51.74
70338;BME280;57757;53.198;19.646;2023-04-27T09:10:51;100356.58;;;9.56;51.84
70338;BME280;57757;53.198;19.646;2023-04-27T09:13:20;100347.80;;;9.73;52.08
70338;BME280;57757;53.198;19.646;2023-04-27T09:15:49;100342.39;;;9.92;52.05
70338;BME280;57757;53.198;19.646;2023-04-27T09:18:21;100342.52;;;10.14;51.95
70338;BME280;57757;53.198;19.646;2023-04-27T09:20:51;100341.51;;;10.49;52.13
70338;BME280;57757;53.198;19.646;2023-04-27T09:23:26;100340.16;;;10.87;51.85
70338;BME280;57757;53.198;19.646;2023-04-27T09:25:56;100335.05;;;11.06;51.41
70338;BME280;57757;53.198;19.646;2023-04-27T09:28:25;100327.42;;;11.26;51.16
70338;BME280;57757;53.198;19.646;2023-04-27T09:30:57;100325.80;;;11.49;51.04
70338;BME280;57757;53.198;19.646;2023-04-27T09:33:27;100332.19;;;11.80;50.78
70338;BME280;57757;53.198;19.646;2023-04-27T09:35:59;100330.66;;;11.91;50.15
70338;BME280;57757;53.198;19.646;2023-04-27T09:38:28;100328.08;;;11.84;49.94
70338;BME280;57757;53.198;19.646;2023-04-27T09:40:58;100336.17;;;11.67;49.49
70338;BME280;57757;53.198;19.646;2023-04-27T09:43:30;100326.70;;;11.41;49.33
70338;BME280;57757;53.198;19.646;2023-04-27T09:45:58;100334.29;;;11.37;49.73
70338;BME280;57757;53.198;19.646;2023-04-27T09:48:27;100333.80;;;11.57;49.89
70338;BME280;57757;53.198;19.646;2023-04-27T09:50:55;100329.20;;;11.59;49.34
70338;BME280;57757;53.198;19.646;2023-04-27T09:53:32;100324.68;;;11.53;49.32
70338;BME280;57757;53.198;19.646;2023-04-27T10:01:45;100323.55;;;12.70;49.96
70338;BME280;57757;53.198;19.646;2023-04-27T10:07:09;100330.77;;;13.15;48.84
70338;BME280;57757;53.198;19.646;2023-04-27T10:09:41;100327.96;;;12.92;48.24
70338;BME280;57757;53.198;19.646;2023-04-27T10:12:14;100333.27;;;12.66;47.82
70338;BME280;57757;53.198;19.646;2023-04-27T10:14:58;100330.05;;;12.33;47.86
70338;BME280;57757;53.198;19.646;2023-04-27T10:17:32;100331.93;;;12.09;47.90
70338;BME280;57757;53.198;19.646;2023-04-27T10:20:05;100332.71;;;11.87;47.53
70338;BME280;57757;53.198;19.646;2023-04-27T10:27:57;100330.77;;;12.20;47.87
70338;BME280;57757;53.198;19.646;2023-04-27T10:30:30;100333.52;;;12.15;47.58
70338;BME280;57757;53.198;19.646;2023-04-27T10:33:08;100330.84;;;12.05;47.23
70338;BME280;57757;53.198;19.646;2023-04-27T10:38:20;100328.20;;;11.99;47.17
70338;BME280;57757;53.198;19.646;2023-04-27T10:41:00;100324.36;;;12.31;47.61
70338;BME280;57757;53.198;19.646;2023-04-27T10:43:34;100323.27;;;12.44;46.94
70338;BME280;57757;53.198;19.646;2023-04-27T10:46:19;100319.35;;;12.82;47.48
70338;BME280;57757;53.198;19.646;2023-04-27T10:48:47;100313.13;;;13.57;47.98
70338;BME280;57757;53.198;19.646;2023-04-27T10:51:19;100315.77;;;14.22;47.52
70338;BME280;57757;53.198;19.646;2023-04-27T10:53:51;100304.66;;;14.84;47.48
70338;BME280;57757;53.198;19.646;2023-04-27T10:56:20;100300.98;;;15.54;47.18
70338;BME280;57757;53.198;19.646;2023-04-27T10:59:24;100301.06;;;15.64;46.20
70338;BME280;57757;53.198;19.646;2023-04-27T11:01:52;100308.89;;;15.31;45.57
70338;BME280;57757;53.198;19.646;2023-04-27T11:04:37;100317.01;;;14.68;44.84
70338;BME280;57757;53.198;19.646;2023-04-27T11:07:08;100316.70;;;13.95;44.74
70338;BME280;57757;53.198;19.646;2023-04-27T11:09:37;100331.80;;;13.42;44.83
70338;BME280;57757;53.198;19.646;2023-04-27T11:12:07;100332.79;;;12.88;44.80
70338;BME280;57757;53.198;19.646;2023-04-27T11:14:47;100333.65;;;12.41;44.92
70338;BME280;57757;53.198;19.646;2023-04-27T11:17:15;100330.52;;;12.10;45.31
70338;BME280;57757;53.198;19.646;2023-04-27T11:19:47;100330.11;;;12.00;45.65
70338;BME280;57757;53.198;19.646;2023-04-27T11:22:18;100325.86;;;12.21;45.62
70338;BME280;57757;53.198;19.646;2023-04-27T11:24:50;100332.77;;;12.29;45.55
70338;BME280;57757;53.198;19.646;2023-04-27T11:27:19;100331.27;;;12.27;45.24
70338;BME280;57757;53.198;19.646;2023-04-27T11:29:49;100333.23;;;12.19;45.12
70338;BME280;57757;53.198;19.646;2023-04-27T11:32:22;100335.84;;;12.13;44.89
70338;BME280;57757;53.198;19.646;2023-04-27T11:34:53;100339.31;;;12.00;44.58
70338;BME280;57757;53.198;19.646;2023-04-27T11:37:26;100343.56;;;11.84;44.49
70338;BME280;57757;53.198;19.646;2023-04-27T11:39:54;100341.47;;;11.71;44.61
70338;BME280;57757;53.198;19.646;2023-04-27T11:42:25;100341.44;;;11.65;44.70
70338;BME280;57757;53.198;19.646;2023-04-27T11:45:00;100344.02;;;11.60;44.72
70338;BME280;57757;53.198;19.646;2023-04-27T11:47:30;100342.34;;;11.57;44.67
70338;BME280;57757;53.198;19.646;2023-04-27T11:50:11;100341.79;;;11.58;44.70
70338;BME280;57757;53.198;19.646;2023-04-27T11:52:41;100343.55;;;11.57;44.79
70338;BME280;57757;53.198;19.646;2023-04-27T11:55:09;100350.05;;;11.56;44.71
70338;BME280;57757;53.198;19.646;2023-04-27T11:57:44;100350.24;;;11.54;44.47
70338;BME280;57757;53.198;19.646;2023-04-27T12:00:12;100352.33;;;11.55;44.62
70338;BME280;57757;53.198;19.646;2023-04-27T12:02:42;100357.86;;;11.57;44.66
70338;BME280;57757;53.198;19.646;2023-04-27T12:05:14;100357.26;;;11.52;44.53
70338;BME280;57757;53.198;19.646;2023-04-27T12:07:48;100353.81;;;11.43;44.58
70338;BME280;57757;53.198;19.646;2023-04-27T12:10:16;100352.86;;;11.40;44.72
70338;BME280;57757;53.198;19.646;2023-04-27T12:12:47;100352.33;;;11.39;44.52
70338;BME280;57757;53.198;19.646;2023-04-27T12:15:15;100355.96;;;11.34;44.67
70338;BME280;57757;53.198;19.646;2023-04-27T12:17:43;100353.64;;;11.29;44.48
70338;BME280;57757;53.198;19.646;2023-04-27T12:20:11;100357.74;;;11.25;44.53
70338;BME280;57757;53.198;19.646;2023-04-27T12:22:40;100359.06;;;11.21;44.19
70338;BME280;57757;53.198;19.646;2023-04-27T12:25:24;100360.09;;;11.14;43.93
70338;BME280;57757;53.198;19.646;2023-04-27T12:27:53;100364.16;;;11.03;43.98
70338;BME280;57757;53.198;19.646;2023-04-27T12:30:23;100368.02;;;10.93;44.04
70338;BME280;57757;53.198;19.646;2023-04-27T12:32:50;100367.81;;;10.88;44.13
70338;BME280;57757;53.198;19.646;2023-04-27T12:35:18;100368.54;;;10.78;43.98
70338;BME280;57757;53.198;19.646;2023-04-27T12:37:45;100368.46;;;10.74;44.14
70338;BME280;57757;53.198;19.646;2023-04-27T12:40:14;100370.95;;;10.72;44.05
70338;BME280;57757;53.198;19.646;2023-04-27T12:42:42;100373.85;;;10.65;43.96
70338;BME280;57757;53.198;19.646;2023-04-27T12:45:09;100377.50;;;10.57;43.88
70338;BME280;57757;53.198;19.646;2023-04-27T12:47:40;100376.09;;;10.50;44.05
70338;BME280;57757;53.198;19.646;2023-04-27T12:50:33;100374.38;;;10.48;44.13
70338;BME280;57757;53.198;19.646;2023-04-27T12:53:04;100379.98;;;10.63;44.15
70338;BME280;57757;53.198;19.646;2023-04-27T12:55:31;100374.45;;;10.85;44.15
70338;BME280;57757;53.198;19.646;2023-04-27T12:58:01;100371.54;;;11.08;44.14
70338;BME280;57757;53.198;19.646;2023-04-27T13:00:32;100373.61;;;11.23;43.88
70338;BME280;57757;53.198;19.646;2023-04-27T13:03:01;100377.13;;;11.30;43.73
70338;BME280;57757;53.198;19.646;2023-04-27T13:05:29;100369.13;;;11.43;43.53
70338;BME280;57757;53.198;19.646;2023-04-27T13:07:58;100369.67;;;11.72;43.74
70338;BME280;57757;53.198;19.646;2023-04-27T13:10:27;100370.77;;;11.91;43.20
70338;BME280;57757;53.198;19.646;2023-04-27T13:12:56;100368.48;;;12.05;43.15
70338;BME280;57757;53.198;19.646;2023-04-27T13:15:24;100371.95;;;12.19;43.13